createdAt,value
2022-10-13T00:00:58.910Z,98811.03
2022-10-13T00:03:25.887Z,98793.78
2022-10-13T00:05:52.604Z,98807.28
2022-10-13T00:08:21.834Z,98806.59
2022-10-13T00:10:50.586Z,98807.28
2022-10-13T00:13:20.523Z,98809.41
2022-10-13T00:15:47.722Z,98815.03
2022-10-13T00:18:15.958Z,98810.09
2022-10-13T00:20:51.307Z,98813.19
2022-10-13T00:23:18.113Z,98803.66
2022-10-13T00:25:47.242Z,98819.44
2022-10-13T00:28:16.076Z,98821.22
2022-10-13T00:30:42.698Z,98821.72
2022-10-13T00:33:11.565Z,98818.09
2022-10-13T00:35:43.443Z,98831.59
2022-10-13T00:38:11.626Z,98831.44
2022-10-13T00:40:53.274Z,98810.56
2022-10-13T00:43:24.487Z,98816.16
2022-10-13T00:45:52.019Z,98818.28
2022-10-13T00:48:26.509Z,98816.81
2022-10-13T00:50:53.656Z,98819.75
2022-10-13T00:53:23.179Z,98811.72
2022-10-13T00:55:52.178Z,98811.22
2022-10-13T00:58:23.248Z,98802.66
2022-10-13T01:00:52.291Z,98813.38
2022-10-13T01:03:21.193Z,98803.13
2022-10-13T01:05:48.628Z,98804.97
2022-10-13T01:08:15.334Z,98798.06
2022-10-13T01:10:57.046Z,98799.72
2022-10-13T01:13:27.250Z,98795.75
2022-10-13T01:16:30.290Z,98791.13
2022-10-13T01:19:33.551Z,98799.72
2022-10-13T01:22:03.100Z,98796.59
2022-10-13T01:24:44.847Z,98804.31
2022-10-13T01:27:30.794Z,98798.72
2022-10-13T01:30:12.608Z,98800.84
2022-10-13T01:33:09.498Z,98784.88
2022-10-13T01:36:03.821Z,98785.19
2022-10-13T01:38:35.384Z,98779.13
2022-10-13T01:41:22.845Z,98780.59
2022-10-13T01:44:00.374Z,98778.97
2022-10-13T01:46:30.907Z,98768.09
2022-10-13T01:49:01.950Z,98778.97
2022-10-13T01:51:30.561Z,98752.34
2022-10-13T01:53:57.547Z,98778.31
2022-10-13T01:56:24.227Z,98777.69
2022-10-13T01:58:53.136Z,98768.09
2022-10-13T02:01:41.379Z,98768.59
2022-10-13T02:04:19.767Z,98762.34
2022-10-13T02:06:53.896Z,98766.81
2022-10-13T02:09:47.623Z,98764.00
2022-10-13T02:12:21.794Z,98721.28
2022-10-13T02:14:50.335Z,98758.72
2022-10-13T02:17:17.501Z,98763.84
2022-10-13T02:19:45.593Z,98755.31
2022-10-13T02:22:14.693Z,98750.53
2022-10-13T02:24:41.760Z,98738.34
2022-10-13T02:27:09.088Z,98738.19
2022-10-13T02:29:49.455Z,98752.00
2022-10-13T02:32:16.949Z,98746.56
2022-10-13T02:34:43.729Z,98744.75
2022-10-13T02:37:10.339Z,98745.75
2022-10-13T02:39:36.972Z,98747.03
2022-10-13T02:42:03.820Z,98749.34
2022-10-13T02:44:30.430Z,98741.13
2022-10-13T02:46:57.158Z,98740.28
2022-10-13T02:49:23.667Z,98733.03
2022-10-13T02:51:50.304Z,98740.81
2022-10-13T02:54:16.981Z,98696.59
2022-10-13T02:56:43.571Z,98741.78
2022-10-13T02:59:10.171Z,98739.31
2022-10-13T03:01:36.878Z,98731.38
2022-10-13T03:04:03.383Z,98734.22
2022-10-13T03:06:29.984Z,98727.66
2022-10-13T03:08:56.537Z,98725.66
2022-10-13T03:11:23.214Z,98726.66
2022-10-13T03:13:49.733Z,98734.53
2022-10-13T03:16:16.439Z,98732.56
2022-10-13T03:18:42.949Z,98737.00
2022-10-13T03:21:10.313Z,98725.16
2022-10-13T03:23:39.250Z,98737.69
2022-10-13T03:26:05.994Z,98726.50
2022-10-13T03:28:32.586Z,98730.31
2022-10-13T03:31:08.448Z,98727.03
2022-10-13T03:33:35.227Z,98721.13
2022-10-13T03:36:03.930Z,98726.91
2022-10-13T03:38:33.273Z,98722.75
2022-10-13T03:41:05.784Z,98718.84
2022-10-13T03:43:32.340Z,98726.06
2022-10-13T03:46:01.043Z,98720.78
2022-10-13T03:48:29.313Z,98718.16
2022-10-13T03:50:56.115Z,98716.69
2022-10-13T03:53:23.064Z,98712.28
2022-10-13T03:55:54.710Z,98725.72
2022-10-13T03:58:22.559Z,98717.69
2022-10-13T04:00:53.009Z,98707.31
2022-10-13T04:03:19.625Z,98718.34
2022-10-13T04:05:46.621Z,98720.13
2022-10-13T04:08:14.177Z,98725.88
2022-10-13T04:10:40.791Z,98719.81
2022-10-13T04:13:08.131Z,98704.03
2022-10-13T04:15:38.274Z,98701.75
2022-10-13T04:18:05.964Z,98720.63
2022-10-13T04:20:37.595Z,98722.59
2022-10-13T04:23:04.825Z,98702.19
2022-10-13T04:25:31.370Z,98717.34
2022-10-13T04:27:57.910Z,98715.50
2022-10-13T04:30:24.485Z,98717.97
2022-10-13T04:32:51.039Z,98718.50
2022-10-13T04:35:17.591Z,98715.88
2022-10-13T04:37:45.201Z,98715.03
2022-10-13T04:40:12.426Z,98716.84
2022-10-13T04:42:39.025Z,98708.31
2022-10-13T04:45:06.121Z,98707.16
2022-10-13T04:47:36.994Z,98717.81
2022-10-13T04:50:04.159Z,98712.56
2022-10-13T04:52:30.741Z,98714.22
2022-10-13T04:54:57.770Z,98714.56
2022-10-13T04:57:24.312Z,98715.53
2022-10-13T04:59:51.292Z,98722.59
2022-10-13T05:02:18.112Z,98707.81
2022-10-13T05:04:45.226Z,98719.47
2022-10-13T05:07:19.135Z,98717.34
2022-10-13T05:09:46.602Z,98724.25
2022-10-13T05:12:13.193Z,98720.94
2022-10-13T05:14:39.939Z,98723.56
2022-10-13T05:17:07.488Z,98718.00
2022-10-13T05:19:34.222Z,98713.25
2022-10-13T05:22:00.815Z,98713.56
2022-10-13T05:24:29.530Z,98723.56
2022-10-13T05:26:56.344Z,98710.13
2022-10-13T05:29:22.934Z,98706.47
2022-10-13T05:31:49.451Z,98704.84
2022-10-13T05:34:16.195Z,98707.97
2022-10-13T05:36:42.695Z,98706.66
2022-10-13T05:39:10.099Z,98712.91
2022-10-13T05:41:36.704Z,98570.03
2022-10-13T05:44:08.843Z,98699.06
2022-10-13T05:46:41.933Z,98696.47
2022-10-13T05:49:08.523Z,98702.72
2022-10-13T05:51:41.765Z,98705.03
2022-10-13T05:54:13.730Z,98702.56
2022-10-13T05:56:46.669Z,98704.69
2022-10-13T05:59:17.488Z,98700.41
2022-10-13T06:01:47.525Z,98683.31
2022-10-13T06:04:19.163Z,98690.41
2022-10-13T06:06:48.365Z,98691.88
2022-10-13T06:09:15.377Z,98683.34
2022-10-13T06:11:43.226Z,98701.25
2022-10-13T06:14:09.779Z,98709.28
2022-10-13T06:16:36.493Z,98677.59
2022-10-13T06:19:04.783Z,98690.22
2022-10-13T06:21:31.665Z,98693.03
2022-10-13T06:23:58.171Z,98693.34
2022-10-13T06:26:24.855Z,98690.25
2022-10-13T06:28:55.632Z,98687.94
2022-10-13T06:31:25.831Z,98694.81
2022-10-13T06:33:52.369Z,98660.34
2022-10-13T06:36:19.033Z,98681.03
2022-10-13T06:38:45.836Z,98691.84
2022-10-13T06:41:12.854Z,98701.06
2022-10-13T06:43:40.589Z,98692.34
2022-10-13T06:46:11.072Z,98684.31
2022-10-13T06:48:38.549Z,98695.81
2022-10-13T06:51:08.498Z,98684.97
2022-10-13T06:53:35.308Z,98693.53
2022-10-13T06:56:03.468Z,98684.47
2022-10-13T06:58:30.080Z,98689.53
2022-10-13T07:00:57.305Z,98680.31
2022-10-13T07:03:24.190Z,98672.72
2022-10-13T07:05:50.891Z,98670.75
2022-10-13T07:08:17.529Z,98672.09
2022-10-13T07:10:44.224Z,98669.44
2022-10-13T07:13:11.594Z,98634.28
2022-10-13T07:15:39.491Z,98673.47
2022-10-13T07:18:07.096Z,98667.09
2022-10-13T07:20:34.347Z,98656.38
2022-10-13T07:23:01.437Z,98664.38
2022-10-13T07:25:27.971Z,98663.75
2022-10-13T07:27:54.636Z,98666.00
2022-10-13T07:30:21.357Z,98656.13
2022-10-13T07:32:48.679Z,98657.25
2022-10-13T07:35:15.209Z,98626.91
2022-10-13T07:37:41.864Z,98663.09
2022-10-13T07:40:09.006Z,98660.34
2022-10-13T07:42:35.844Z,98670.44
2022-10-13T07:45:02.481Z,98671.72
2022-10-13T07:47:29.415Z,98678.63
2022-10-13T07:49:55.946Z,98680.81
2022-10-13T07:52:23.173Z,98672.44
2022-10-13T07:54:50.720Z,98684.94
2022-10-13T07:57:17.490Z,98674.50
2022-10-13T07:59:44.086Z,98668.28
2022-10-13T08:02:13.065Z,98651.94
2022-10-13T08:04:39.608Z,98671.50
2022-10-13T08:07:07.016Z,98670.50
2022-10-13T08:09:33.864Z,98667.25
2022-10-13T08:12:01.938Z,98669.81
2022-10-13T08:14:30.080Z,98670.91
2022-10-13T08:16:58.624Z,98666.19
2022-10-13T08:19:25.737Z,98660.44
2022-10-13T08:22:00.456Z,98662.91
2022-10-13T08:24:29.000Z,98665.81
2022-10-13T08:26:55.564Z,98638.38
2022-10-13T08:29:23.382Z,98655.38
2022-10-13T08:31:54.335Z,98662.13
2022-10-13T08:34:25.228Z,98661.66
2022-10-13T08:36:53.777Z,98665.09
2022-10-13T08:39:21.384Z,98665.84
2022-10-13T08:41:48.350Z,98665.63
2022-10-13T08:45:16.168Z,98657.03
2022-10-13T08:47:27.535Z,98646.22
2022-10-13T08:50:00.283Z,98649.00
2022-10-13T08:52:29.934Z,98651.63
2022-10-13T08:54:56.734Z,98647.66
2022-10-13T08:57:24.287Z,98648.75
2022-10-13T08:59:52.823Z,98624.53
2022-10-13T09:02:30.505Z,98600.28
2022-10-13T09:05:02.444Z,98610.84
2022-10-13T09:07:32.741Z,98647.22
2022-10-13T09:09:59.271Z,98646.53
2022-10-13T09:12:27.769Z,98641.28
2022-10-13T09:15:04.615Z,98628.38
2022-10-13T09:17:33.000Z,98631.59
2022-10-13T09:20:17.750Z,98632.81
2022-10-13T09:22:45.397Z,98631.88
2022-10-13T09:25:20.026Z,98637.13
2022-10-13T09:27:53.327Z,98631.63
2022-10-13T09:30:28.984Z,98630.72
2022-10-13T09:33:14.147Z,98629.56
2022-10-13T09:35:49.952Z,98628.16
2022-10-13T09:38:20.641Z,98619.97
2022-10-13T09:41:09.313Z,98620.22
2022-10-13T09:43:58.374Z,98625.56
2022-10-13T09:46:33.159Z,98623.31
2022-10-13T09:49:45.505Z,98622.31
2022-10-13T09:52:12.388Z,98613.72
2022-10-13T09:54:50.768Z,98609.84
2022-10-13T09:57:36.748Z,98613.47
2022-10-13T10:00:20.679Z,98608.16
2022-10-13T10:02:56.281Z,98610.16
2022-10-13T10:05:27.935Z,98606.31
2022-10-13T10:08:06.628Z,98605.66
2022-10-13T10:10:40.329Z,98606.59
2022-10-13T10:13:13.065Z,98600.34
2022-10-13T10:15:57.834Z,98610.13
2022-10-13T10:18:36.047Z,98581.72
2022-10-13T10:21:10.311Z,98574.19
2022-10-13T10:23:46.289Z,98610.25
2022-10-13T10:26:32.328Z,98606.09
2022-10-13T10:29:29.187Z,98602.94
2022-10-13T10:32:05.365Z,98601.03
2022-10-13T10:34:47.577Z,98596.41
2022-10-13T10:37:28.441Z,98581.69
2022-10-13T10:40:19.823Z,98594.56
2022-10-13T10:43:27.940Z,98579.97
2022-10-13T10:45:57.415Z,98573.41
2022-10-13T10:48:31.285Z,98579.75
2022-10-13T10:50:59.212Z,98577.47
2022-10-13T10:53:45.389Z,98579.38
2022-10-13T10:56:27.260Z,98583.06
2022-10-13T10:59:20.462Z,98584.69
2022-10-13T11:02:16.033Z,98577.81
2022-10-13T11:04:46.683Z,98578.03
2022-10-13T11:07:24.110Z,98572.81
2022-10-13T11:09:56.863Z,98572.13
2022-10-13T11:12:28.953Z,98564.47
2022-10-13T11:15:18.393Z,98564.13
2022-10-13T11:17:47.469Z,98562.75
2022-10-13T11:20:26.234Z,98563.66
2022-10-13T11:23:05.823Z,98555.16
2022-10-13T11:25:47.212Z,98557.66
2022-10-13T11:28:23.206Z,98557.69
2022-10-13T11:30:52.358Z,98552.97
2022-10-13T11:33:40.631Z,98547.19
2022-10-13T11:36:29.220Z,98543.09
2022-10-13T11:39:24.898Z,98532.63
2022-10-13T11:42:03.544Z,98538.16
2022-10-13T11:44:46.904Z,98528.19
2022-10-13T11:47:19.378Z,98526.84
2022-10-13T11:50:22.597Z,98515.28
2022-10-13T11:53:10.557Z,98507.22
2022-10-13T11:55:42.983Z,98504.53
2022-10-13T11:58:15.932Z,98510.50
2022-10-13T12:00:56.283Z,98504.44
2022-10-13T12:03:26.677Z,98495.88
2022-10-13T12:05:57.891Z,98490.69
2022-10-13T12:08:27.231Z,98491.56
2022-10-13T12:10:56.314Z,98488.03
2022-10-13T12:13:29.244Z,98487.72
2022-10-13T12:16:05.633Z,98490.94
2022-10-13T12:18:35.281Z,98489.22
2022-10-13T12:21:15.201Z,98490.19
2022-10-13T12:23:42.035Z,98489.25
2022-10-13T12:26:17.989Z,98482.81
2022-10-13T12:28:50.894Z,98492.09
2022-10-13T12:31:23.936Z,98490.84
2022-10-13T12:33:56.341Z,98489.88
2022-10-13T12:39:27.079Z,98480.56
2022-10-13T12:41:55.010Z,98468.25
2022-10-13T12:44:25.523Z,98438.00
2022-10-13T12:46:55.548Z,98461.31
2022-10-13T12:49:26.470Z,98466.28
2022-10-13T12:52:11.593Z,98463.59
2022-10-13T12:54:45.963Z,98458.59
2022-10-13T12:57:39.705Z,98464.78
2022-10-13T13:00:27.556Z,98466.16
2022-10-13T13:03:06.913Z,98464.38
2022-10-13T13:05:44.218Z,98462.63
2022-10-13T13:08:38.435Z,98469.81
2022-10-13T13:11:08.186Z,98455.94
2022-10-13T13:13:34.823Z,98463.97
2022-10-13T13:16:16.061Z,98473.41
2022-10-13T13:18:44.379Z,98429.34
2022-10-13T13:21:22.835Z,98463.75
2022-10-13T13:23:52.915Z,98462.53
2022-10-13T13:26:24.092Z,98462.41
2022-10-13T13:28:55.890Z,98463.81
2022-10-13T13:31:24.342Z,98435.59
2022-10-13T13:33:52.664Z,98459.53
2022-10-13T13:36:24.840Z,98459.06
2022-10-13T13:38:53.123Z,98457.22
2022-10-13T13:41:19.995Z,98417.06
2022-10-13T13:43:46.572Z,98460.00
2022-10-13T13:46:23.276Z,98453.41
2022-10-13T13:48:50.337Z,98461.75
2022-10-13T13:51:19.075Z,98458.44
2022-10-13T13:53:46.400Z,98463.69
2022-10-13T13:56:14.866Z,98456.97
2022-10-13T13:58:41.563Z,98458.22
2022-10-13T14:01:08.200Z,98457.47
2022-10-13T14:03:34.949Z,98455.41
2022-10-13T14:06:01.657Z,98451.63
2022-10-13T14:08:36.319Z,98459.69
2022-10-13T14:11:06.348Z,98418.38
2022-10-13T14:13:33.995Z,98460.41
2022-10-13T14:16:02.284Z,98450.69
2022-10-13T14:18:28.874Z,98444.91
2022-10-13T14:20:55.437Z,98445.53
2022-10-13T14:23:22.245Z,98450.34
2022-10-13T14:25:48.999Z,98455.41
2022-10-13T14:28:18.427Z,98448.94
2022-10-13T14:30:45.559Z,98448.00
2022-10-13T14:33:12.434Z,98448.19
2022-10-13T14:35:39.206Z,98439.69
2022-10-13T14:38:05.957Z,98444.31
2022-10-13T14:40:33.657Z,98441.34
2022-10-13T14:43:00.467Z,98439.78
2022-10-13T14:45:27.256Z,98437.03
2022-10-13T14:47:53.757Z,98438.63
2022-10-13T14:50:20.297Z,98433.09
2022-10-13T14:52:51.792Z,98439.88
2022-10-13T14:55:18.395Z,98440.44
2022-10-13T14:57:45.039Z,98448.34
2022-10-13T15:00:12.617Z,98444.81
2022-10-13T15:02:39.125Z,98440.56
2022-10-13T15:05:06.376Z,98446.84
2022-10-13T15:07:32.964Z,98436.22
2022-10-13T15:10:06.840Z,98438.28
2022-10-13T15:12:34.112Z,98437.81
2022-10-13T15:15:00.825Z,98440.84
2022-10-13T15:17:27.748Z,98432.53
2022-10-13T15:19:54.572Z,98431.75
2022-10-13T15:22:21.452Z,98434.50
2022-10-13T15:24:48.188Z,98434.66
2022-10-13T15:27:15.127Z,98403.69
2022-10-13T15:29:41.651Z,98422.28
2022-10-13T15:32:12.475Z,98427.22
2022-10-13T15:34:39.586Z,98425.72
2022-10-13T15:37:06.717Z,98424.31
2022-10-13T15:39:33.672Z,98423.81
2022-10-13T15:42:00.756Z,98427.72
2022-10-13T15:44:45.432Z,98435.03
2022-10-13T15:47:21.093Z,98416.59
2022-10-13T15:49:49.531Z,98413.31
2022-10-13T15:52:23.657Z,98415.31
2022-10-13T15:54:51.678Z,98422.03
2022-10-13T15:57:20.617Z,98420.16
2022-10-13T15:59:48.029Z,98418.72
2022-10-13T16:02:16.126Z,98415.78
2022-10-13T16:04:46.269Z,98415.00
2022-10-13T16:07:15.019Z,98416.22
2022-10-13T16:09:41.644Z,98418.44
2022-10-13T16:12:08.158Z,98414.75
2022-10-13T16:14:34.794Z,98416.16
2022-10-13T16:17:01.511Z,98423.38
2022-10-13T16:19:28.144Z,98409.72
2022-10-13T16:21:54.742Z,98427.31
2022-10-13T16:24:21.625Z,98418.44
2022-10-13T16:26:48.148Z,98418.81
2022-10-13T16:29:14.742Z,98406.59
2022-10-13T16:31:41.411Z,98426.13
2022-10-13T16:34:07.975Z,98411.41
2022-10-13T16:36:34.555Z,98427.41
2022-10-13T16:39:01.169Z,98418.81
2022-10-13T16:41:27.749Z,98419.03
2022-10-13T16:43:54.983Z,98414.84
2022-10-13T16:46:21.558Z,98418.06
2022-10-13T16:48:48.676Z,98423.03
2022-10-13T16:51:23.679Z,98420.16
2022-10-13T16:53:52.720Z,98415.06
2022-10-13T16:56:20.395Z,98420.00
2022-10-13T16:58:46.991Z,98418.78
2022-10-13T17:01:13.606Z,98419.81
2022-10-13T17:03:43.560Z,98414.69
2022-10-13T17:06:11.187Z,98413.69
2022-10-13T17:08:37.963Z,98405.09
2022-10-13T17:11:05.850Z,98414.13
2022-10-13T17:13:34.667Z,98418.78
2022-10-13T17:16:01.859Z,98413.72
2022-10-13T17:18:28.741Z,98419.41
2022-10-13T17:20:59.890Z,98410.41
2022-10-13T17:23:27.022Z,98412.06
2022-10-13T17:25:54.757Z,98415.94
2022-10-13T17:28:22.521Z,98416.13
2022-10-13T17:30:59.074Z,98419.19
2022-10-13T17:33:30.517Z,98413.28
2022-10-13T17:36:01.666Z,98411.88
2022-10-13T17:38:29.108Z,98430.06
2022-10-13T17:41:00.513Z,98441.47
2022-10-13T17:43:27.754Z,98437.38
2022-10-13T17:45:54.428Z,98431.47
2022-10-13T17:48:23.193Z,98438.78
2022-10-13T17:50:49.915Z,98438.78
2022-10-13T17:53:18.111Z,98440.84
2022-10-13T17:55:44.652Z,98437.59
2022-10-13T17:58:13.801Z,98436.59
2022-10-13T18:01:11.390Z,98430.06
2022-10-13T18:03:27.019Z,98438.22
2022-10-13T18:05:53.541Z,98432.72
2022-10-13T18:08:20.137Z,98437.19
2022-10-13T18:11:07.035Z,98424.16
2022-10-13T18:13:34.354Z,98427.81
2022-10-13T18:16:19.092Z,98420.66
2022-10-13T18:18:46.570Z,98428.22
2022-10-13T18:21:15.089Z,98425.56
2022-10-13T18:23:45.308Z,98421.69
2022-10-13T18:26:15.306Z,98419.66
2022-10-13T18:28:43.667Z,98418.84
2022-10-13T18:31:39.175Z,98420.47
2022-10-13T18:34:08.206Z,98408.66
2022-10-13T18:36:37.471Z,98417.41
2022-10-13T18:39:14.975Z,98416.78
2022-10-13T18:41:45.113Z,98387.06
2022-10-13T18:44:11.846Z,98413.13
2022-10-13T18:46:50.479Z,98415.16
2022-10-13T18:49:18.585Z,98405.41
2022-10-13T18:51:51.423Z,98417.00
2022-10-13T18:54:18.295Z,98413.75
2022-10-13T18:56:44.791Z,98397.84
2022-10-13T18:59:11.463Z,98414.34
2022-10-13T19:01:39.115Z,98413.94
2022-10-13T19:04:06.761Z,98380.91
2022-10-13T19:06:33.690Z,98414.34
2022-10-13T19:09:03.072Z,98412.53
2022-10-13T19:11:30.846Z,98413.34
2022-10-13T19:13:58.634Z,98402.75
2022-10-13T19:16:27.655Z,98417.41
2022-10-13T19:18:54.731Z,98413.94
2022-10-13T19:21:22.806Z,98411.69
2022-10-13T19:23:50.927Z,98412.50
2022-10-13T19:26:26.888Z,98375.41
2022-10-13T19:28:55.705Z,98413.53
2022-10-13T19:31:24.356Z,98408.03
2022-10-13T19:33:53.178Z,98414.94
2022-10-13T19:36:42.622Z,98413.53
2022-10-13T19:39:14.987Z,98417.41
2022-10-13T19:41:44.361Z,98418.63
2022-10-13T19:44:11.425Z,98412.28
2022-10-13T19:46:39.249Z,98417.81
2022-10-13T19:49:06.275Z,98416.16
2022-10-13T19:51:35.708Z,98382.28
2022-10-13T19:54:02.400Z,98415.56
2022-10-13T19:56:31.337Z,98425.16
2022-10-13T19:58:58.700Z,98419.03
2022-10-13T20:01:25.526Z,98411.91
2022-10-13T20:03:52.871Z,98420.88
2022-10-13T20:06:20.955Z,98418.22
2022-10-13T20:08:47.513Z,98412.28
2022-10-13T20:11:23.048Z,98380.50
2022-10-13T20:13:52.083Z,98413.53
2022-10-13T20:16:22.246Z,98414.56
2022-10-13T20:18:54.396Z,98412.72
2022-10-13T20:21:21.827Z,98408.03
2022-10-13T20:23:49.774Z,98381.50
2022-10-13T20:26:17.643Z,98405.56
2022-10-13T20:28:45.818Z,98410.06
2022-10-13T20:31:14.853Z,98401.09
2022-10-13T20:33:41.934Z,98395.16
2022-10-13T20:36:12.330Z,98401.50
2022-10-13T20:38:39.284Z,98385.16
2022-10-13T20:41:18.006Z,98397.81
2022-10-13T20:43:46.036Z,98399.81
2022-10-13T20:46:13.307Z,98378.59
2022-10-13T20:49:05.564Z,98399.03
2022-10-13T20:51:29.557Z,98397.00
2022-10-13T20:53:56.400Z,98403.31
2022-10-13T20:56:26.246Z,98399.44
2022-10-13T20:58:53.250Z,98400.28
2022-10-13T21:01:21.982Z,98401.91
2022-10-13T21:03:53.487Z,98403.53
2022-10-13T21:06:20.399Z,98400.44
2022-10-13T21:08:47.363Z,98396.19
2022-10-13T21:11:16.116Z,98395.97
2022-10-13T21:13:43.854Z,98398.63
2022-10-13T21:16:13.099Z,98399.03
2022-10-13T21:18:39.718Z,98397.00
2022-10-13T21:21:09.789Z,98342.72
2022-10-13T21:23:37.053Z,98394.66
2022-10-13T21:26:06.239Z,98398.09
2022-10-13T21:28:33.774Z,98400.53
2022-10-13T21:31:05.639Z,98393.44
2022-10-13T21:33:35.831Z,98382.81
2022-10-13T21:36:17.628Z,98386.28
2022-10-13T21:38:45.533Z,98384.06
2022-10-13T21:41:13.798Z,98389.16
2022-10-13T21:43:40.701Z,98392.81
2022-10-13T21:46:11.522Z,98383.03
2022-10-13T21:48:43.751Z,98377.09
2022-10-13T21:51:28.547Z,98384.63
2022-10-13T21:53:57.465Z,98388.91
2022-10-13T21:56:25.322Z,98375.56
2022-10-13T21:58:52.141Z,98382.06
2022-10-13T22:01:19.729Z,98381.63
2022-10-13T22:03:47.612Z,98381.16
2022-10-13T22:06:19.607Z,98367.13
2022-10-13T22:08:48.779Z,98382.09
2022-10-13T22:11:22.183Z,98375.81
2022-10-13T22:13:49.006Z,98374.59
2022-10-13T22:16:21.768Z,98377.44
2022-10-13T22:18:51.302Z,98376.44
2022-10-13T22:21:20.617Z,98378.06
2022-10-13T22:23:47.804Z,98378.06
2022-10-13T22:26:17.205Z,98376.44
2022-10-13T22:28:45.695Z,98379.47
2022-10-13T22:31:13.173Z,98373.53
2022-10-13T22:33:42.019Z,98371.28
2022-10-13T22:36:09.947Z,98364.56
2022-10-13T22:38:36.590Z,98363.94
2022-10-13T22:41:05.367Z,98370.44
2022-10-13T22:43:32.462Z,98369.63
2022-10-13T22:46:20.327Z,98363.72
2022-10-13T22:48:47.238Z,98363.31
2022-10-13T22:51:19.794Z,98371.63
2022-10-13T22:53:47.102Z,98370.19
2022-10-13T22:56:17.481Z,98362.25
2022-10-13T22:58:44.438Z,98365.50
2022-10-13T23:01:13.901Z,98361.59
2022-10-13T23:03:41.630Z,98372.56
2022-10-13T23:06:13.421Z,98364.84
2022-10-13T23:08:40.180Z,98369.31
2022-10-13T23:11:06.676Z,98358.75
2022-10-13T23:13:33.504Z,98358.97
2022-10-13T23:16:02.054Z,98362.19
2022-10-13T23:18:34.029Z,98355.00
2022-10-13T23:21:04.841Z,98349.56
2022-10-13T23:23:31.364Z,98359.03
2022-10-13T23:26:02.786Z,98355.94
2022-10-13T23:28:30.768Z,98351.09
2022-10-13T23:31:05.464Z,98354.38
2022-10-13T23:33:32.799Z,98339.13
2022-10-13T23:36:01.005Z,98348.53
2022-10-13T23:38:29.368Z,98347.16
2022-10-13T23:41:01.450Z,98319.59
2022-10-13T23:43:28.046Z,98346.34
2022-10-13T23:45:54.581Z,98348.63
2022-10-13T23:48:21.338Z,98349.66
2022-10-13T23:50:47.833Z,98356.38
2022-10-13T23:53:14.481Z,98346.84
2022-10-13T23:55:41.170Z,98347.88
2022-10-13T23:58:08.481Z,98348.84
